Flight Track Log - Related Links

Times and Time Zones

All times are in EDT time to prevent confusion due to time zone crossing. See the VH-BMX flight status page for this flight to view local times or setup timezone preferences in your user account.

Time Position Orientation Groundspeed Altitude Reporting Facility
EDT Latitude Longitude Course Direction KTS km/h feet Rate Location/Type
Fri 21:05:35 -33.9879 150.8592 68° East 101 187 1.500  Level Aus ATC (RADAR)
Fri 21:06:30 -33.9786 150.8873 68° East 99 183 1.300  Descending Aus ATC (RADAR)
Fri 21:07:15 -33.9688 150.9099 62° Northeast 100 185 1.500 189 Climbing Aus ATC (RADAR)
Fri 21:08:05 -33.9557 150.9332 56° Northeast 100 185 1.600  Climbing Aus ATC (RADAR)
Fri 21:08:40 -33.9630 150.9462 124° Southeast 87 161 1.500 -225 Descending Aus ATC (RADAR)
Fri 21:09:25 -33.9765 150.9518 161° South 68 126 1.300 -133 Descending Aus ATC (RADAR)
Fri 21:10:10 -33.9765 150.9710 90° East 82 151 1.300 152 Level Aus ATC (RADAR)
Fri 21:10:44 -33.9630 150.9747 13° North 90 167 1.500  Climbing Aus ATC (RADAR)
Fri 21:11:45 -33.9589 150.9477 281° West 88 163 1.300  Descending Aus ATC (RADAR)
Fri 21:12:34 -33.9769 150.9449 187° South 82 151 1.500 64 Climbing Aus ATC (RADAR)
Fri 21:13:19 -33.9788 150.9672 96° East 97 180 1.400 -75 Descending Aus ATC (RADAR)
Fri 21:13:54 -33.9628 150.9751 22° Northeast 112 208 1.400  Level Aus ATC (RADAR)
Fri 21:14:54 -33.9652 150.9487 264° West 94 174 1.400 -50 Level Aus ATC (RADAR)
Fri 21:15:54 -33.9695 150.9651 108° East 95 175 1.300  Descending Aus ATC (RADAR)
Fri 21:16:49 -33.9717 150.9512 259° West 85 158 1.400 67 Climbing Aus ATC (RADAR)
Fri 21:17:24 -33.9774 150.9672 113° Southeast 88 163 1.400  Level Aus ATC (RADAR)
Fri 21:18:19 -33.9610 150.9592 338° Northwest 93 172 1.400 -60 Level Aus ATC (RADAR)
Fri 21:19:04 -33.9579 150.9337 278° West 105 195 1.300 -133 Descending Aus ATC (RADAR)
Fri 21:22:28 -33.9991 150.8088 248° West -382 Descending Aus ATC (Calculated)
Fri 21:24:00 -34.0402 150.6872 238° Southwest  Level FlightAware Approximate

Login

Don't have an account? Register now (free) for customized features, flight alerts, and more!